TimeEST,TemperatureF,Dew PointF,Humidity,Sea Level PressureIn,VisibilityMPH,Wind Direction,Wind SpeedMPH,Gust SpeedMPH,PrecipitationIn,Events,Conditions,WindDirDegrees,DateUTC
12:56 AM,35.1,19.0,52,29.87,10.0,SW,5.8,-,N/A,,Clear,220,2014-03-08 05:56:00
1:56 AM,37.0,21.0,52,29.86,10.0,SW,6.9,-,N/A,,Scattered Clouds,220,2014-03-08 06:56:00
2:56 AM,37.9,21.9,53,29.84,10.0,SSW,5.8,-,N/A,,Mostly Cloudy,210,2014-03-08 07:56:00
3:56 AM,37.9,21.9,53,29.83,10.0,SSW,5.8,-,N/A,,Overcast,210,2014-03-08 08:56:00
4:56 AM,36.0,23.0,59,29.84,10.0,SW,8.1,-,N/A,,Overcast,220,2014-03-08 09:56:00
5:56 AM,35.1,23.0,61,29.85,10.0,WSW,5.8,-,N/A,,Overcast,240,2014-03-08 10:56:00
6:56 AM,34.0,21.9,61,29.86,10.0,Calm,Calm,-,N/A,,Overcast,0,2014-03-08 11:56:00
7:56 AM,33.1,23.0,66,29.88,10.0,West,4.6,-,N/A,,Overcast,280,2014-03-08 12:56:00
8:56 AM,34.0,25.0,70,29.91,10.0,WNW,6.9,-,N/A,,Overcast,290,2014-03-08 13:56:00
9:56 AM,34.0,24.1,67,29.92,9.0,North,10.4,-,N/A,,Overcast,10,2014-03-08 14:56:00
10:03 AM,34.0,24.1,67,29.90,9.0,North,12.7,-,N/A,,Overcast,10,2014-03-08 15:03:00
10:51 AM,33.8,26.6,75,29.91,3.0,NNE,10.4,-,N/A,,Haze,20,2014-03-08 15:51:00
10:56 AM,33.1,26.1,75,29.92,3.0,NNE,12.7,-,N/A,,Haze,30,2014-03-08 15:56:00
11:22 AM,33.1,27.0,78,29.92,2.5,NNE,12.7,-,N/A,,Haze,20,2014-03-08 16:22:00
11:34 AM,32.0,26.1,79,29.92,2.0,North,16.1,-,0.00,Rain,Light Freezing Rain,10,2014-03-08 16:34:00
11:42 AM,32.0,25.0,75,29.93,2.5,North,11.5,-,0.00,Rain,Light Freezing Rain,10,2014-03-08 16:42:00
11:48 AM,32.0,25.0,75,29.93,4.0,NNE,16.1,20.7,0.00,,Overcast,20,2014-03-08 16:48:00
11:56 AM,30.9,24.1,76,29.95,5.0,NNE,11.5,-,0.00,,Overcast,20,2014-03-08 16:56:00
12:04 PM,32.0,24.1,73,29.93,7.0,North,11.5,-,N/A,,Overcast,10,2014-03-08 17:04:00
12:56 PM,32.0,19.9,61,29.94,10.0,North,11.5,-,N/A,,Overcast,10,2014-03-08 17:56:00
1:56 PM,32.0,16.0,52,29.95,10.0,NNE,11.5,-,N/A,,Overcast,20,2014-03-08 18:56:00
2:18 PM,32.0,16.0,52,29.93,10.0,NNE,9.2,-,N/A,,Overcast,30,2014-03-08 19:18:00
2:56 PM,32.0,16.0,52,29.96,10.0,NE,9.2,-,N/A,,Overcast,40,2014-03-08 19:56:00
3:56 PM,33.1,14.0,46,29.95,10.0,NNE,4.6,-,N/A,,Overcast,20,2014-03-08 20:56:00
4:56 PM,34.0,12.9,42,29.95,10.0,NNE,5.8,-,N/A,,Overcast,30,2014-03-08 21:56:00
5:56 PM,30.9,10.9,43,29.98,10.0,Calm,Calm,-,N/A,,Clear,0,2014-03-08 22:56:00
6:56 PM,24.1,10.9,57,30.00,10.0,Calm,Calm,-,N/A,,Clear,0,2014-03-08 23:56:00
7:56 PM,16.0,8.1,71,30.01,10.0,Calm,Calm,-,N/A,,Clear,0,2014-03-09 00:56:00
8:56 PM,14.0,7.0,74,30.01,10.0,Calm,Calm,-,N/A,,Clear,0,2014-03-09 01:56:00
9:56 PM,10.0,3.9,76,30.03,10.0,Calm,Calm,-,N/A,,Clear,0,2014-03-09 02:56:00
10:56 PM,6.1,1.0,80,30.03,10.0,Calm,Calm,-,N/A,,Clear,0,2014-03-09 03:56:00
11:56 PM,9.0,3.0,77,30.03,10.0,Calm,Calm,-,N/A,,Clear,0,2014-03-09 04:56:00